createdAt,value
2023-01-15T00:02:08.067Z,1.94
2023-01-15T00:04:35.148Z,1.95
2023-01-15T00:07:01.903Z,1.95
2023-01-15T00:09:28.660Z,1.94
2023-01-15T00:11:55.404Z,1.88
2023-01-15T00:14:22.457Z,1.84
2023-01-15T00:16:52.757Z,1.86
2023-01-15T00:19:19.946Z,1.90
2023-01-15T00:21:46.693Z,1.93
2023-01-15T00:24:31.777Z,1.94
2023-01-15T00:27:17.287Z,1.97
2023-01-15T00:29:46.574Z,2.01
2023-01-15T00:32:13.366Z,1.99
2023-01-15T00:34:40.189Z,1.93
2023-01-15T00:37:06.938Z,1.89
2023-01-15T00:39:34.728Z,1.85
2023-01-15T00:42:02.006Z,1.80
2023-01-15T00:44:28.967Z,1.78
2023-01-15T00:46:55.695Z,1.74
2023-01-15T00:49:22.579Z,1.72
2023-01-15T00:51:50.222Z,1.74
2023-01-15T00:54:17.464Z,1.74
2023-01-15T00:56:44.501Z,1.78
2023-01-15T00:59:11.545Z,1.79
2023-01-15T01:01:38.440Z,1.79
2023-01-15T01:04:05.658Z,1.79
2023-01-15T01:06:35.297Z,1.81
2023-01-15T01:09:02.329Z,1.81
2023-01-15T01:11:34.412Z,1.84
2023-01-15T01:14:02.590Z,1.88
2023-01-15T01:16:32.085Z,1.86
2023-01-15T01:19:00.174Z,1.88
2023-01-15T01:21:27.360Z,1.88
2023-01-15T01:23:54.137Z,1.85
2023-01-15T01:26:21.667Z,1.87
2023-01-15T01:28:49.795Z,1.84
2023-01-15T01:31:16.869Z,1.81
2023-01-15T01:33:43.773Z,1.80
2023-01-15T01:36:10.870Z,1.81
2023-01-15T01:38:37.732Z,1.80
2023-01-15T01:41:04.710Z,1.78
2023-01-15T01:43:31.503Z,1.80
2023-01-15T01:45:59.221Z,1.79
2023-01-15T01:48:28.804Z,1.74
2023-01-15T01:50:57.185Z,1.65
2023-01-15T01:53:26.815Z,1.68
2023-01-15T01:55:56.417Z,1.67
2023-01-15T01:58:24.976Z,1.63
2023-01-15T02:00:52.923Z,1.60
2023-01-15T02:03:22.581Z,1.52
2023-01-15T02:05:52.708Z,1.48
2023-01-15T02:08:19.625Z,1.49
2023-01-15T02:10:52.175Z,1.53
2023-01-15T02:13:34.428Z,1.56
2023-01-15T02:16:08.008Z,1.58
2023-01-15T02:18:46.085Z,1.59
2023-01-15T02:21:31.065Z,1.59
2023-01-15T02:24:07.602Z,1.57
2023-01-15T02:26:53.267Z,1.55
2023-01-15T02:29:28.252Z,1.54
2023-01-15T02:31:57.415Z,1.52
2023-01-15T02:34:27.097Z,1.51
2023-01-15T02:37:07.205Z,1.52
2023-01-15T02:39:38.249Z,1.52
2023-01-15T02:42:07.408Z,1.49
2023-01-15T02:44:44.511Z,1.46
2023-01-15T02:47:13.907Z,1.45
2023-01-15T02:49:44.608Z,1.43
2023-01-15T02:52:23.152Z,1.41
2023-01-15T02:54:53.726Z,1.36
2023-01-15T02:57:22.727Z,1.32
2023-01-15T02:59:57.674Z,1.29
2023-01-15T03:02:28.601Z,1.25
2023-01-15T03:05:06.464Z,1.23
2023-01-15T03:08:05.176Z,1.21
2023-01-15T03:10:52.518Z,1.21
2023-01-15T03:13:27.537Z,1.19
2023-01-15T03:16:19.204Z,1.18
2023-01-15T03:18:53.678Z,1.18
2023-01-15T03:21:23.685Z,1.16
2023-01-15T03:23:55.450Z,1.15
2023-01-15T03:26:25.626Z,1.14
2023-01-15T03:28:55.772Z,1.13
2023-01-15T03:31:24.645Z,1.13
2023-01-15T03:33:51.615Z,1.10
2023-01-15T03:36:25.051Z,1.09
2023-01-15T03:38:54.234Z,1.11
2023-01-15T03:41:47.610Z,1.16
2023-01-15T03:44:24.055Z,1.21
2023-01-15T03:47:05.530Z,1.25
2023-01-15T03:49:35.617Z,1.30
2023-01-15T03:52:30.480Z,1.37
2023-01-15T03:55:10.032Z,1.43
2023-01-15T03:57:59.091Z,1.51
2023-01-15T04:00:28.356Z,1.53
2023-01-15T04:03:01.570Z,1.58
2023-01-15T04:05:34.185Z,1.62
2023-01-15T04:08:05.765Z,1.65
2023-01-15T04:10:34.371Z,1.67
2023-01-15T04:13:04.485Z,1.68
2023-01-15T04:15:32.682Z,1.67
2023-01-15T04:18:00.771Z,1.66
2023-01-15T04:20:30.659Z,1.65
2023-01-15T04:22:57.635Z,1.64
2023-01-15T04:25:24.678Z,1.64
2023-01-15T04:27:57.044Z,1.66
2023-01-15T04:30:24.993Z,1.68
2023-01-15T04:32:53.143Z,1.72
2023-01-15T04:35:20.787Z,1.73
2023-01-15T04:37:49.174Z,1.73
2023-01-15T04:40:37.780Z,1.76
2023-01-15T04:43:23.445Z,1.82
2023-01-15T04:45:51.477Z,1.87
2023-01-15T04:48:18.686Z,1.91
2023-01-15T04:50:46.883Z,1.94
2023-01-15T04:53:14.762Z,2.00
2023-01-15T04:55:41.709Z,2.04
2023-01-15T04:58:09.893Z,2.08
2023-01-15T05:00:40.028Z,2.12
2023-01-15T05:03:07.744Z,2.16
2023-01-15T05:05:36.101Z,2.17
2023-01-15T05:08:04.317Z,2.20
2023-01-15T05:10:31.826Z,2.26
2023-01-15T05:12:59.847Z,2.31
2023-01-15T05:15:27.612Z,2.36
2023-01-15T05:17:54.813Z,2.39
2023-01-15T05:20:21.626Z,2.41
2023-01-15T05:22:50.855Z,2.43
2023-01-15T05:25:17.801Z,2.45
2023-01-15T05:27:46.466Z,2.47
2023-01-15T05:30:14.583Z,2.51
2023-01-15T05:32:42.876Z,2.54
2023-01-15T05:35:10.087Z,2.56
2023-01-15T05:37:38.156Z,2.61
2023-01-15T05:40:06.087Z,2.68
2023-01-15T05:42:33.985Z,2.74
2023-01-15T05:45:02.006Z,2.79
2023-01-15T05:47:28.801Z,2.82
2023-01-15T05:49:56.800Z,2.86
2023-01-15T05:52:23.859Z,2.89
2023-01-15T05:54:50.828Z,2.94
2023-01-15T05:57:19.145Z,2.97
2023-01-15T05:59:47.467Z,3.03
2023-01-15T06:02:15.736Z,3.05
2023-01-15T06:04:42.491Z,3.09
2023-01-15T06:07:10.726Z,3.15
2023-01-15T06:09:37.857Z,3.22
2023-01-15T06:12:05.939Z,3.29
2023-01-15T06:14:34.146Z,3.31
2023-01-15T06:17:01.845Z,3.38
2023-01-15T06:19:30.018Z,3.43
2023-01-15T06:21:56.949Z,3.48
2023-01-15T06:24:23.722Z,3.52
2023-01-15T06:26:51.700Z,3.59
2023-01-15T06:29:20.804Z,3.66
2023-01-15T06:31:49.647Z,3.72
2023-01-15T06:34:16.976Z,3.80
2023-01-15T06:36:45.053Z,3.88
2023-01-15T06:39:11.853Z,3.95
2023-01-15T06:41:59.622Z,4.01
2023-01-15T06:44:47.304Z,4.08
2023-01-15T06:47:23.237Z,4.14
2023-01-15T06:49:55.106Z,4.15
2023-01-15T06:52:23.946Z,4.17
2023-01-15T06:54:50.779Z,4.20
2023-01-15T06:57:19.669Z,4.25
2023-01-15T06:59:48.747Z,4.31
2023-01-15T07:02:16.148Z,4.39
2023-01-15T07:04:43.078Z,4.45
2023-01-15T07:07:11.103Z,4.49
2023-01-15T07:09:37.933Z,4.54
2023-01-15T07:12:07.181Z,4.56
2023-01-15T07:14:34.011Z,4.57
2023-01-15T07:17:02.234Z,4.57
2023-01-15T07:19:31.309Z,4.55
2023-01-15T07:21:59.426Z,4.53
2023-01-15T07:24:27.466Z,4.51
2023-01-15T07:26:55.178Z,4.51
2023-01-15T07:29:23.460Z,4.54
2023-01-15T07:31:51.641Z,4.60
2023-01-15T07:34:18.967Z,4.67
2023-01-15T07:36:47.118Z,4.73
2023-01-15T07:39:15.545Z,4.77
2023-01-15T07:42:01.684Z,4.85
2023-01-15T07:44:54.873Z,4.92
2023-01-15T07:47:41.708Z,4.99
2023-01-15T07:50:14.009Z,5.03
2023-01-15T07:52:42.318Z,5.07
2023-01-15T07:55:10.327Z,5.10
2023-01-15T07:57:39.129Z,5.11
2023-01-15T08:00:06.968Z,5.11
2023-01-15T08:02:53.846Z,5.13
2023-01-15T08:05:21.526Z,5.15
2023-01-15T08:07:52.216Z,5.15
2023-01-15T08:10:20.173Z,5.14
2023-01-15T08:13:08.388Z,5.15
2023-01-15T08:15:38.996Z,5.16
2023-01-15T08:18:07.229Z,5.16
2023-01-15T08:20:36.975Z,5.16
2023-01-15T08:23:05.216Z,5.17
2023-01-15T08:25:32.001Z,5.17
2023-01-15T08:28:03.490Z,5.17
2023-01-15T08:30:31.351Z,5.18
2023-01-15T08:33:01.607Z,5.19
2023-01-15T08:35:29.687Z,5.22
2023-01-15T08:37:58.038Z,5.26
2023-01-15T08:40:27.475Z,5.29
2023-01-15T08:42:56.607Z,5.33
2023-01-15T08:45:24.136Z,5.36
2023-01-15T08:47:54.584Z,5.38
2023-01-15T08:50:22.040Z,5.38
2023-01-15T08:52:49.016Z,5.36
2023-01-15T08:55:17.202Z,5.39
2023-01-15T08:57:44.689Z,5.45
2023-01-15T09:00:17.379Z,5.49
2023-01-15T09:02:46.892Z,5.53
2023-01-15T09:05:15.128Z,5.60
2023-01-15T09:07:43.037Z,5.67
2023-01-15T09:10:10.492Z,5.73
2023-01-15T09:12:38.666Z,5.81
2023-01-15T09:15:05.850Z,5.87
2023-01-15T09:17:33.291Z,5.94
2023-01-15T09:20:00.160Z,6.04
2023-01-15T09:22:30.205Z,6.13
2023-01-15T09:24:57.047Z,6.19
2023-01-15T09:27:23.792Z,6.25
2023-01-15T09:29:50.549Z,6.29
2023-01-15T09:32:17.213Z,6.31
2023-01-15T09:34:44.134Z,6.35
2023-01-15T09:37:11.131Z,6.38
2023-01-15T09:39:38.218Z,6.45
2023-01-15T09:42:23.478Z,6.48
2023-01-15T09:44:56.432Z,6.57
2023-01-15T09:47:27.757Z,6.65
2023-01-15T09:50:13.368Z,6.76
2023-01-15T09:52:49.447Z,6.94
2023-01-15T09:55:20.614Z,7.07
2023-01-15T09:57:50.917Z,7.20
2023-01-15T10:00:19.828Z,7.30
2023-01-15T10:02:50.892Z,7.41
2023-01-15T10:05:29.397Z,7.49
2023-01-15T10:08:20.002Z,7.56
2023-01-15T10:10:59.544Z,7.42
2023-01-15T10:13:46.362Z,7.71
2023-01-15T10:16:24.872Z,7.88
2023-01-15T10:18:53.127Z,8.01
2023-01-15T10:21:25.827Z,8.12
2023-01-15T10:24:11.631Z,8.25
2023-01-15T10:26:55.124Z,8.34
2023-01-15T10:29:43.297Z,8.43
2023-01-15T10:32:23.789Z,8.49
2023-01-15T10:35:22.807Z,8.56
2023-01-15T10:37:58.574Z,8.64
2023-01-15T10:40:44.235Z,8.70
2023-01-15T10:43:15.605Z,8.77
2023-01-15T10:45:51.722Z,8.83
2023-01-15T10:48:29.295Z,8.87
2023-01-15T10:50:57.366Z,8.89
2023-01-15T10:53:41.916Z,8.89
2023-01-15T10:56:21.367Z,8.90
2023-01-15T10:58:58.671Z,8.90
2023-01-15T11:01:27.492Z,8.86
2023-01-15T11:03:55.253Z,8.85
2023-01-15T11:06:24.202Z,8.83
2023-01-15T11:09:09.155Z,8.80
2023-01-15T11:12:05.546Z,8.75
2023-01-15T11:15:03.268Z,8.72
2023-01-15T11:17:52.415Z,8.69
2023-01-15T11:20:53.191Z,8.64
2023-01-15T11:23:21.690Z,8.61
2023-01-15T11:25:50.776Z,8.59
2023-01-15T11:28:21.318Z,8.57
2023-01-15T11:30:54.505Z,8.56
2023-01-15T11:33:25.615Z,8.56
2023-01-15T11:35:58.603Z,8.59
2023-01-15T11:38:28.181Z,8.60
2023-01-15T11:41:05.556Z,8.59
2023-01-15T11:43:56.196Z,8.58
2023-01-15T11:46:46.143Z,8.57
2023-01-15T11:49:55.462Z,8.58
2023-01-15T11:52:23.934Z,8.61
2023-01-15T11:54:52.941Z,8.65
2023-01-15T11:57:34.069Z,8.66
2023-01-15T12:00:04.338Z,8.70
2023-01-15T12:02:55.605Z,8.72
2023-01-15T12:05:25.383Z,8.79
2023-01-15T12:07:54.730Z,8.82
2023-01-15T12:10:51.581Z,8.86
2023-01-15T12:13:23.947Z,8.88
2023-01-15T12:16:03.694Z,8.94
2023-01-15T12:18:50.736Z,8.99
2023-01-15T12:21:18.402Z,9.05
2023-01-15T12:23:48.139Z,9.07
2023-01-15T12:26:35.021Z,9.07
2023-01-15T12:29:13.986Z,9.08
2023-01-15T12:31:50.528Z,9.10
2023-01-15T12:34:30.178Z,9.13
2023-01-15T12:37:05.699Z,9.21
2023-01-15T12:39:38.453Z,9.32
2023-01-15T12:42:28.168Z,9.43
2023-01-15T12:45:07.827Z,9.56
2023-01-15T12:47:35.532Z,9.69
2023-01-15T12:50:20.936Z,9.87
2023-01-15T12:52:52.488Z,10.05
2023-01-15T12:55:21.256Z,10.20
2023-01-15T12:57:56.774Z,10.28
2023-01-15T13:00:30.310Z,10.35
2023-01-15T13:03:03.665Z,10.37
2023-01-15T13:05:39.694Z,10.36
2023-01-15T13:08:10.700Z,10.34
2023-01-15T13:10:40.897Z,10.32
2023-01-15T13:13:15.547Z,10.31
2023-01-15T13:15:51.100Z,10.33
2023-01-15T13:18:25.448Z,10.35
2023-01-15T13:20:55.736Z,10.36
2023-01-15T13:23:31.487Z,10.38
2023-01-15T13:26:26.318Z,10.41
2023-01-15T13:28:54.676Z,10.47
2023-01-15T13:31:40.549Z,10.49
2023-01-15T13:34:13.381Z,10.53
2023-01-15T13:36:45.795Z,10.55
2023-01-15T13:39:24.518Z,10.56
2023-01-15T13:42:14.614Z,10.57
2023-01-15T13:44:48.140Z,10.59
2023-01-15T13:47:35.534Z,10.60
2023-01-15T13:50:06.611Z,10.61
2023-01-15T13:52:35.226Z,10.62
2023-01-15T13:55:11.743Z,10.61
2023-01-15T13:57:41.324Z,10.58
2023-01-15T14:00:26.680Z,10.54
2023-01-15T14:02:56.381Z,10.52
2023-01-15T14:05:23.527Z,10.48
2023-01-15T14:07:51.844Z,10.48
2023-01-15T14:10:23.766Z,10.46
2023-01-15T14:13:10.634Z,10.45
2023-01-15T14:15:48.211Z,10.43
2023-01-15T14:18:24.231Z,10.42
2023-01-15T14:21:04.398Z,10.42
2023-01-15T14:23:54.270Z,10.44
2023-01-15T14:26:40.068Z,10.41
2023-01-15T14:29:28.337Z,10.38
2023-01-15T14:31:58.616Z,10.37
2023-01-15T14:34:25.622Z,10.35
2023-01-15T14:36:52.739Z,10.32
2023-01-15T14:39:44.477Z,10.29
2023-01-15T14:42:45.312Z,10.27
2023-01-15T14:45:17.235Z,10.23
2023-01-15T14:47:52.312Z,10.20
2023-01-15T14:50:48.997Z,10.19
2023-01-15T14:53:16.741Z,10.15
2023-01-15T14:56:03.255Z,10.12
2023-01-15T14:58:46.264Z,10.10
2023-01-15T15:01:41.736Z,10.07
2023-01-15T15:04:28.450Z,10.05
2023-01-15T15:06:57.349Z,10.02
2023-01-15T15:09:36.437Z,9.98
2023-01-15T15:12:27.895Z,9.95
2023-01-15T15:15:07.697Z,9.90
2023-01-15T15:18:01.574Z,9.91
2023-01-15T15:20:37.905Z,9.87
2023-01-15T15:23:26.492Z,9.85
2023-01-15T15:25:58.099Z,9.81
2023-01-15T15:28:26.586Z,9.78
2023-01-15T15:30:55.213Z,9.77
2023-01-15T15:33:24.618Z,9.76
2023-01-15T15:35:54.232Z,9.73
2023-01-15T15:38:22.772Z,9.71
2023-01-15T15:40:53.313Z,9.70
2023-01-15T15:43:45.959Z,9.67
2023-01-15T15:46:42.403Z,9.67
2023-01-15T15:49:10.155Z,9.65
2023-01-15T15:51:40.253Z,9.65
2023-01-15T15:54:20.514Z,9.66
2023-01-15T15:57:09.865Z,9.68
2023-01-15T15:59:38.265Z,9.68
2023-01-15T16:02:19.917Z,9.67
2023-01-15T16:04:51.986Z,9.70
2023-01-15T16:07:33.754Z,9.71
2023-01-15T16:10:14.153Z,9.73
2023-01-15T16:12:51.720Z,9.74
2023-01-15T16:15:24.284Z,9.75
2023-01-15T16:17:52.835Z,9.76
2023-01-15T16:20:21.061Z,9.78
2023-01-15T16:22:56.662Z,9.75
2023-01-15T16:25:34.593Z,9.75
2023-01-15T16:28:02.367Z,9.74
2023-01-15T16:30:32.356Z,9.74
2023-01-15T16:33:05.661Z,9.74
2023-01-15T16:35:34.620Z,9.73
2023-01-15T16:38:02.538Z,9.71
2023-01-15T16:40:35.672Z,9.67
2023-01-15T16:43:08.497Z,9.63
2023-01-15T16:45:38.047Z,9.61
2023-01-15T16:48:25.555Z,9.39
2023-01-15T16:50:53.161Z,9.53
2023-01-15T16:53:28.875Z,9.52
2023-01-15T16:55:57.723Z,9.47
2023-01-15T16:58:34.744Z,9.44
2023-01-15T17:01:03.003Z,9.43
2023-01-15T17:03:31.793Z,9.40
2023-01-15T17:06:00.913Z,9.36
2023-01-15T17:08:34.504Z,9.33
2023-01-15T17:11:02.479Z,9.30
2023-01-15T17:13:36.743Z,9.27
2023-01-15T17:16:06.796Z,9.25
2023-01-15T17:18:33.874Z,9.23
2023-01-15T17:21:00.859Z,9.20
2023-01-15T17:23:28.634Z,9.16
2023-01-15T17:25:56.265Z,9.11
2023-01-15T17:28:27.082Z,9.06
2023-01-15T17:31:00.667Z,9.02
2023-01-15T17:33:27.838Z,9.01
2023-01-15T17:35:56.700Z,8.99
2023-01-15T17:38:24.678Z,8.98
2023-01-15T17:40:52.960Z,8.97
2023-01-15T17:43:21.169Z,8.94
2023-01-15T17:45:48.987Z,8.94
2023-01-15T17:48:18.565Z,8.92
2023-01-15T17:50:46.912Z,8.92
2023-01-15T17:53:14.931Z,8.93
2023-01-15T17:56:00.215Z,8.93
2023-01-15T17:58:46.520Z,8.92
2023-01-15T18:01:46.069Z,8.90
2023-01-15T18:04:42.266Z,8.89
2023-01-15T18:07:10.270Z,8.88
2023-01-15T18:09:38.264Z,8.89
2023-01-15T18:12:06.515Z,8.84
2023-01-15T18:14:34.110Z,8.83
2023-01-15T18:17:05.305Z,8.84
2023-01-15T18:19:32.990Z,8.85
2023-01-15T18:22:00.940Z,8.86
2023-01-15T18:24:27.965Z,8.85
2023-01-15T18:26:55.641Z,8.82
2023-01-15T18:29:23.546Z,8.83
2023-01-15T18:31:50.970Z,8.82
2023-01-15T18:34:17.810Z,8.81
2023-01-15T18:36:44.750Z,8.82
2023-01-15T18:39:13.491Z,8.83
2023-01-15T18:41:40.819Z,8.83
2023-01-15T18:44:35.715Z,8.85
2023-01-15T18:47:04.582Z,8.83
2023-01-15T18:49:32.143Z,8.83
2023-01-15T18:52:17.792Z,8.82
2023-01-15T18:54:45.290Z,8.76
2023-01-15T18:57:13.129Z,8.75
2023-01-15T18:59:42.832Z,8.76
2023-01-15T19:02:10.895Z,8.74
2023-01-15T19:04:40.708Z,8.73
2023-01-15T19:07:08.513Z,8.71
2023-01-15T19:09:37.574Z,8.70
2023-01-15T19:12:07.833Z,8.71
2023-01-15T19:14:53.805Z,8.68
2023-01-15T19:17:40.582Z,8.70
2023-01-15T19:20:08.316Z,8.70
2023-01-15T19:22:53.383Z,8.67
2023-01-15T19:25:23.409Z,8.67
2023-01-15T19:27:50.503Z,8.69
2023-01-15T19:30:17.432Z,8.72
2023-01-15T19:32:44.322Z,8.70
2023-01-15T19:35:11.092Z,8.70
2023-01-15T19:37:39.920Z,8.70
2023-01-15T19:40:14.070Z,8.73
2023-01-15T19:42:59.712Z,8.74
2023-01-15T19:45:45.311Z,8.72
2023-01-15T19:48:31.721Z,8.69
2023-01-15T19:50:58.647Z,8.71
2023-01-15T19:53:25.409Z,8.74
2023-01-15T19:55:52.223Z,8.72
2023-01-15T19:58:19.284Z,8.70
2023-01-15T20:00:50.121Z,8.68
2023-01-15T20:03:17.597Z,8.67
2023-01-15T20:05:45.295Z,8.70
2023-01-15T20:08:17.724Z,8.71
2023-01-15T20:10:45.806Z,8.70
2023-01-15T20:13:31.823Z,8.69
2023-01-15T20:16:01.809Z,8.67
2023-01-15T20:18:28.916Z,8.65
2023-01-15T20:20:56.149Z,8.62
2023-01-15T20:23:23.306Z,8.63
2023-01-15T20:25:52.422Z,8.65
2023-01-15T20:28:19.631Z,8.67
2023-01-15T20:30:47.069Z,8.70
2023-01-15T20:33:14.157Z,8.72
2023-01-15T20:35:41.141Z,8.70
2023-01-15T20:38:08.001Z,8.69
2023-01-15T20:40:34.790Z,8.67
2023-01-15T20:43:20.309Z,8.67
2023-01-15T20:45:47.174Z,8.66
2023-01-15T20:48:13.962Z,8.69
2023-01-15T20:50:42.427Z,8.69
2023-01-15T20:53:09.975Z,8.68
2023-01-15T20:55:54.713Z,8.66
2023-01-15T20:58:24.134Z,8.63
2023-01-15T21:00:51.019Z,8.59
2023-01-15T21:03:18.364Z,8.56
2023-01-15T21:05:45.238Z,8.52
2023-01-15T21:08:12.065Z,8.48
2023-01-15T21:10:39.506Z,8.46
2023-01-15T21:13:06.465Z,8.40
2023-01-15T21:15:33.193Z,8.38
2023-01-15T21:18:00.231Z,8.39
2023-01-15T21:20:27.063Z,8.44
2023-01-15T21:22:57.288Z,8.47
2023-01-15T21:25:24.152Z,8.46
2023-01-15T21:27:51.094Z,8.46
2023-01-15T21:30:18.002Z,8.43
2023-01-15T21:32:46.600Z,8.40
2023-01-15T21:35:13.612Z,8.39
2023-01-15T21:37:40.533Z,8.39
2023-01-15T21:40:08.179Z,8.41
2023-01-15T21:42:53.453Z,8.44
2023-01-15T21:45:20.353Z,8.45
2023-01-15T21:47:47.130Z,8.48
2023-01-15T21:50:14.031Z,8.51
2023-01-15T21:52:40.747Z,8.52
2023-01-15T21:55:07.887Z,8.53
2023-01-15T21:57:34.664Z,8.54
2023-01-15T22:00:01.357Z,8.54
2023-01-15T22:02:29.964Z,8.55
2023-01-15T22:04:56.907Z,8.54
2023-01-15T22:07:23.707Z,8.57
2023-01-15T22:09:50.830Z,8.58
2023-01-15T22:12:17.625Z,8.60
2023-01-15T22:14:44.417Z,8.60
2023-01-15T22:17:11.162Z,8.57
2023-01-15T22:19:38.114Z,8.58
2023-01-15T22:22:08.403Z,8.56
2023-01-15T22:24:36.122Z,8.57
2023-01-15T22:27:03.798Z,8.58
2023-01-15T22:29:31.844Z,8.58
2023-01-15T22:31:58.752Z,8.58
2023-01-15T22:34:26.632Z,8.56
2023-01-15T22:36:53.825Z,8.52
2023-01-15T22:39:21.145Z,8.52
2023-01-15T22:42:06.335Z,8.52
2023-01-15T22:44:33.339Z,8.51
2023-01-15T22:47:01.239Z,8.50
2023-01-15T22:49:28.477Z,8.47
2023-01-15T22:51:55.239Z,8.44
2023-01-15T22:54:22.081Z,8.40
2023-01-15T22:56:48.996Z,8.36
2023-01-15T22:59:16.296Z,8.35
2023-01-15T23:01:43.514Z,8.35
2023-01-15T23:04:13.727Z,8.36
2023-01-15T23:06:40.664Z,8.37
2023-01-15T23:09:07.945Z,8.36
2023-01-15T23:11:35.065Z,8.36
2023-01-15T23:14:01.918Z,8.35
2023-01-15T23:16:28.746Z,8.35
2023-01-15T23:18:55.592Z,8.33
2023-01-15T23:21:23.465Z,8.32
2023-01-15T23:23:57.276Z,8.30
2023-01-15T23:26:25.054Z,8.25
2023-01-15T23:28:52.305Z,8.16
2023-01-15T23:31:19.990Z,8.10
2023-01-15T23:33:47.123Z,8.01
2023-01-15T23:36:14.122Z,7.90
2023-01-15T23:38:41.973Z,7.81
2023-01-15T23:41:09.777Z,7.75
2023-01-15T23:43:55.111Z,7.70
2023-01-15T23:46:35.142Z,7.63
2023-01-15T23:49:08.091Z,7.55
2023-01-15T23:51:36.118Z,7.49
2023-01-15T23:54:03.524Z,7.42
2023-01-15T23:56:31.161Z,7.34
2023-01-15T23:58:58.378Z,7.29
